createdAt,value
2022-10-18T00:02:27.379Z,66734.53
2022-10-18T00:07:31.453Z,66755.53
2022-10-18T00:12:35.707Z,66745.06
2022-10-18T00:17:41.253Z,66753.75
2022-10-18T00:22:44.968Z,66736.44
2022-10-18T00:27:48.714Z,66696.88
2022-10-18T00:32:53.737Z,66684.41
2022-10-18T00:37:57.339Z,66714.47
2022-10-18T00:43:01.237Z,66682.25
2022-10-18T00:48:06.750Z,66680.09
2022-10-18T00:53:13.305Z,66720.47
2022-10-18T00:58:19.374Z,66680.63
2022-10-18T01:03:24.757Z,66666.19
2022-10-18T01:08:45.745Z,66686.09
2022-10-18T01:13:56.727Z,66712.84
2022-10-18T01:19:05.494Z,66730.06
2022-10-18T01:24:24.248Z,66672.13
2022-10-18T01:29:34.341Z,66721.53
2022-10-18T01:34:41.287Z,66707.56
2022-10-18T01:39:46.533Z,66692.47
2022-10-18T01:44:52.274Z,66666.72
2022-10-18T01:50:00.197Z,66675.09
2022-10-18T01:55:04.663Z,66768.38
2022-10-18T02:00:12.706Z,66764.50
2022-10-18T02:05:24.747Z,66773.06
2022-10-18T02:10:31.050Z,66801.72
2022-10-18T02:15:37.110Z,66749.66
2022-10-18T02:20:42.503Z,66797.41
2022-10-18T02:25:46.410Z,66831.38
2022-10-18T02:30:53.617Z,66710.72
2022-10-18T02:36:01.194Z,66752.13
2022-10-18T02:41:05.158Z,66691.38
2022-10-18T02:46:09.003Z,66750.59
2022-10-18T02:51:17.015Z,66738.22
2022-10-18T02:56:20.691Z,66722.53
2022-10-18T03:01:26.238Z,66772.72
2022-10-18T03:06:33.193Z,66783.59
2022-10-18T03:11:39.720Z,66781.88
2022-10-18T03:16:46.621Z,66804.97
2022-10-18T03:21:55.394Z,66821.75
2022-10-18T03:27:00.013Z,66851.22
2022-10-18T03:32:06.310Z,66837.75
2022-10-18T03:37:13.613Z,66867.91
2022-10-18T03:42:17.422Z,66781.28
2022-10-18T03:47:21.521Z,66745.75
2022-10-18T03:52:26.930Z,66806.66
2022-10-18T03:57:32.131Z,66719.94
2022-10-18T04:02:38.114Z,66767.75
2022-10-18T04:07:45.908Z,66747.22
2022-10-18T04:12:51.690Z,66750.00
2022-10-18T04:17:57.444Z,66727.47
2022-10-18T04:23:05.486Z,66729.00
2022-10-18T04:28:11.980Z,66774.34
2022-10-18T04:33:18.165Z,66835.13
2022-10-18T04:38:26.494Z,66816.38
2022-10-18T04:43:33.005Z,66784.44
2022-10-18T04:48:40.295Z,66715.00
2022-10-18T04:53:52.699Z,66760.75
2022-10-18T04:59:00.163Z,66772.13
2022-10-18T05:04:06.539Z,66758.69
2022-10-18T05:09:14.898Z,66765.75
2022-10-18T05:14:20.884Z,66744.75
2022-10-18T05:19:27.556Z,66765.59
2022-10-18T05:24:39.425Z,66759.22
2022-10-18T05:29:46.953Z,66798.03
2022-10-18T05:34:54.471Z,66842.22
2022-10-18T05:40:01.814Z,66911.06
2022-10-18T05:45:08.432Z,66876.66
2022-10-18T05:50:15.577Z,66847.03
2022-10-18T05:55:23.994Z,66841.13
2022-10-18T06:00:30.734Z,66888.50
2022-10-18T06:05:37.066Z,66901.25
2022-10-18T06:10:45.372Z,66846.59
2022-10-18T06:15:51.823Z,66913.31
2022-10-18T06:21:01.735Z,66874.53
2022-10-18T06:26:10.288Z,66940.78
2022-10-18T06:31:16.804Z,66888.50
2022-10-18T06:36:23.940Z,66878.84
2022-10-18T06:41:31.986Z,66950.91
2022-10-18T06:46:55.869Z,66920.31
2022-10-18T06:52:04.620Z,66980.63
2022-10-18T06:57:12.511Z,67009.56
2022-10-18T07:02:19.313Z,66972.63
2022-10-18T07:07:26.044Z,66989.19
2022-10-18T07:12:33.894Z,67046.56
2022-10-18T07:17:38.463Z,67052.34
2022-10-18T07:22:42.285Z,67078.75
2022-10-18T07:27:48.032Z,67111.75
2022-10-18T07:32:52.294Z,67076.59
2022-10-18T07:37:56.049Z,67084.16
2022-10-18T07:43:04.596Z,67177.53
2022-10-18T07:48:09.018Z,67160.88
2022-10-18T07:53:14.042Z,67097.16
2022-10-18T07:58:23.138Z,67070.16
2022-10-18T08:03:29.705Z,67131.09
2022-10-18T08:08:36.911Z,67151.06
2022-10-18T08:13:44.954Z,67219.56
2022-10-18T08:18:51.355Z,67187.25
2022-10-18T08:24:01.754Z,67162.97
2022-10-18T08:29:22.425Z,67277.50
2022-10-18T08:34:58.957Z,67215.31
2022-10-18T08:40:31.159Z,67173.34
2022-10-18T08:45:43.397Z,67199.19
2022-10-18T08:50:50.823Z,67187.78
2022-10-18T08:56:15.886Z,67265.09
2022-10-18T09:01:28.924Z,67224.09
2022-10-18T09:06:37.219Z,67235.84
2022-10-18T09:11:52.796Z,67302.28
2022-10-18T09:17:16.441Z,67259.06
2022-10-18T09:22:27.559Z,67332.56
2022-10-18T09:27:39.212Z,67306.09
2022-10-18T09:32:48.572Z,67283.31
2022-10-18T09:38:03.943Z,67358.97
2022-10-18T09:43:13.594Z,67321.25
2022-10-18T09:48:22.886Z,67338.97
2022-10-18T09:53:37.615Z,67364.97
2022-10-18T09:58:46.010Z,67400.63
2022-10-18T10:03:52.603Z,67417.94
2022-10-18T10:09:07.568Z,67475.31
2022-10-18T10:19:27.694Z,67436.41
2022-10-18T10:24:46.165Z,67457.47
2022-10-18T10:30:12.808Z,67465.47
2022-10-18T10:35:42.151Z,67444.44
2022-10-18T10:41:20.407Z,67553.66
2022-10-18T10:46:45.730Z,67427.25
2022-10-18T10:52:08.590Z,67456.41
2022-10-18T10:57:25.525Z,67375.34
2022-10-18T11:02:33.457Z,67413.63
2022-10-18T11:07:43.507Z,67489.88
2022-10-18T11:12:55.159Z,67457.97
2022-10-18T11:18:03.713Z,67489.34
2022-10-18T11:23:08.391Z,67449.38
2022-10-18T11:28:18.835Z,67446.19
2022-10-18T11:33:56.272Z,67486.75
2022-10-18T11:38:59.575Z,67459.69
2022-10-18T11:44:11.350Z,67584.09
2022-10-18T11:49:28.024Z,67575.47
2022-10-18T11:54:42.390Z,67708.63
2022-10-18T12:00:19.704Z,67850.13
2022-10-18T12:05:47.326Z,67799.03
2022-10-18T12:11:04.966Z,67790.84
2022-10-18T12:16:50.024Z,67755.28
2022-10-18T12:29:07.198Z,67860.94
2022-10-18T12:34:45.987Z,68049.19
2022-10-18T12:40:37.812Z,68055.06
2022-10-18T12:51:25.525Z,67808.31
2022-10-18T12:56:43.757Z,67851.63
2022-10-18T13:02:33.796Z,67830.09
2022-10-18T13:07:51.205Z,67874.41
2022-10-18T13:13:40.275Z,67775.88
2022-10-18T13:19:13.261Z,67750.88
2022-10-18T13:24:49.998Z,67752.50
2022-10-18T13:30:26.160Z,67798.56
2022-10-18T13:35:57.566Z,67744.88
2022-10-18T13:47:08.557Z,67756.78
2022-10-18T13:52:45.910Z,67737.41
2022-10-18T13:58:30.890Z,67737.25
2022-10-18T14:10:43.714Z,67712.34
2022-10-18T14:16:38.226Z,67683.59
2022-10-18T14:22:39.798Z,67703.16
2022-10-18T14:28:59.472Z,67707.41
2022-10-18T14:34:40.952Z,67699.94
2022-10-18T14:40:49.357Z,67618.66
2022-10-18T14:46:31.785Z,67688.03
2022-10-18T14:51:57.676Z,67634.44
2022-10-18T14:57:41.631Z,67707.03
2022-10-18T15:03:56.771Z,67620.81
2022-10-18T15:15:40.720Z,67629.53
2022-10-18T15:28:34.906Z,67488.84
2022-10-18T15:34:27.825Z,67324.97
2022-10-18T15:40:09.728Z,67278.97
2022-10-18T15:45:32.801Z,67211.53
2022-10-18T15:50:41.236Z,67223.88
2022-10-18T15:55:49.323Z,67255.22
2022-10-18T16:00:57.360Z,67272.03
2022-10-18T16:06:04.483Z,67221.84
2022-10-18T16:11:08.343Z,67214.91
2022-10-18T16:16:15.518Z,67133.81
2022-10-18T16:21:20.764Z,67135.94
2022-10-18T16:26:25.304Z,67066.44
2022-10-18T16:31:31.688Z,67098.81
2022-10-18T16:36:35.466Z,67138.28
2022-10-18T16:41:39.252Z,67107.81
2022-10-18T16:46:44.905Z,67066.22
2022-10-18T16:51:48.583Z,67102.03
2022-10-18T16:56:53.249Z,67083.09
2022-10-18T17:01:58.558Z,67064.28
2022-10-18T17:07:02.435Z,67046.88
2022-10-18T17:12:06.434Z,67050.19
2022-10-18T17:17:13.066Z,67060.44
2022-10-18T17:22:16.835Z,67036.25
2022-10-18T17:27:20.706Z,67036.78
2022-10-18T17:32:25.840Z,66984.47
2022-10-18T17:37:29.784Z,66949.91
2022-10-18T17:42:33.378Z,66953.06
2022-10-18T17:47:38.691Z,66957.56
2022-10-18T17:57:52.649Z,66940.78
2022-10-18T18:03:00.582Z,66898.16
2022-10-18T18:08:04.998Z,66968.22
2022-10-18T18:13:08.691Z,66871.75
2022-10-18T18:18:13.689Z,66909.53
2022-10-18T18:23:17.326Z,66972.63
2022-10-18T18:28:21.457Z,66991.34
2022-10-18T18:33:26.711Z,66861.53
2022-10-18T18:38:33.345Z,66926.09
2022-10-18T18:43:37.585Z,66872.22
2022-10-18T18:48:42.889Z,66855.53
2022-10-18T18:53:47.288Z,66871.28
2022-10-18T18:58:51.137Z,66868.53
2022-10-18T19:03:57.202Z,66877.13
2022-10-18T19:09:04.862Z,66871.13
2022-10-18T19:14:09.428Z,66854.59
2022-10-18T19:19:15.218Z,66850.81
2022-10-18T19:24:19.042Z,66833.53
2022-10-18T19:29:23.941Z,66845.91
2022-10-18T19:34:29.679Z,66818.38
2022-10-18T19:39:34.525Z,66829.66
2022-10-18T19:44:38.837Z,66974.13
2022-10-18T19:49:43.774Z,66924.56
2022-10-18T19:54:49.231Z,66954.81
2022-10-18T19:59:53.712Z,66828.75
2022-10-18T20:04:59.724Z,66872.31
2022-10-18T20:10:03.720Z,66913.31
2022-10-18T20:15:08.964Z,66867.50
2022-10-18T20:20:14.334Z,66904.69
2022-10-18T20:25:18.012Z,66887.38
2022-10-18T20:30:21.787Z,66868.03
2022-10-18T20:35:26.720Z,66924.56
2022-10-18T20:46:34.364Z,66915.47
2022-10-18T20:51:38.311Z,66861.06
2022-10-18T20:56:42.145Z,66862.06
2022-10-18T21:01:47.554Z,66903.06
2022-10-18T21:06:51.535Z,66941.25
2022-10-18T21:11:56.287Z,66874.44
2022-10-18T21:17:02.159Z,66757.59
2022-10-18T21:22:06.173Z,66859.28
2022-10-18T21:27:09.982Z,66810.97
2022-10-18T21:32:15.285Z,66865.28
2022-10-18T21:37:19.297Z,66801.72
2022-10-18T21:42:23.283Z,66797.56
2022-10-18T21:47:29.099Z,66828.06
2022-10-18T21:52:33.068Z,66859.44
2022-10-18T21:57:37.687Z,66911.59
2022-10-18T22:02:42.953Z,66843.16
2022-10-18T22:07:46.782Z,66839.53
2022-10-18T22:12:51.275Z,66857.81
2022-10-18T22:17:57.367Z,66776.34
2022-10-18T22:23:01.282Z,66703.69
2022-10-18T22:28:05.779Z,66724.16
2022-10-18T22:33:11.039Z,66650.97
2022-10-18T22:38:15.268Z,66629.00
2022-10-18T22:43:19.084Z,66570.31
2022-10-18T22:48:25.218Z,66574.72
2022-10-18T22:53:29.411Z,66581.78
2022-10-18T22:58:33.811Z,66600.59
2022-10-18T23:03:40.785Z,66576.25
2022-10-18T23:08:44.758Z,66589.31
2022-10-18T23:13:48.833Z,66637.00
2022-10-18T23:18:57.253Z,66530.09
2022-10-18T23:24:02.553Z,66544.75
2022-10-18T23:29:07.058Z,66599.44
2022-10-18T23:34:12.779Z,66619.31
2022-10-18T23:39:16.730Z,66556.41
2022-10-18T23:44:20.650Z,66464.00
2022-10-18T23:49:26.000Z,66470.00
2022-10-18T23:54:29.946Z,66460.25
2022-10-18T23:59:33.791Z,66426.97
